sensor_id;sensor_type;location;lat;lon;timestamp;pressure;altitude;pressure_sealevel;temperature;humidity
3082;BME280;1551;51.046;7.010;2023-07-08T00:02:17;100975.84;;;24.66;39.13
3082;BME280;1551;51.046;7.010;2023-07-08T00:05:07;100970.97;;;24.60;39.03
3082;BME280;1551;51.046;7.010;2023-07-08T00:07:56;100974.63;;;24.57;39.11
3082;BME280;1551;51.046;7.010;2023-07-08T00:10:45;100973.03;;;24.55;39.06
3082;BME280;1551;51.046;7.010;2023-07-08T00:13:34;100969.78;;;24.51;39.23
3082;BME280;1551;51.046;7.010;2023-07-08T00:16:23;100963.63;;;24.38;39.65
3082;BME280;1551;51.046;7.010;2023-07-08T00:19:12;100967.09;;;24.25;40.05
3082;BME280;1551;51.046;7.010;2023-07-08T00:22:01;100970.75;;;24.22;39.76
3082;BME280;1551;51.046;7.010;2023-07-08T00:24:50;100969.09;;;24.21;39.99
3082;BME280;1551;51.046;7.010;2023-07-08T00:27:39;100959.84;;;24.16;40.00
3082;BME280;1551;51.046;7.010;2023-07-08T00:30:30;100962.91;;;24.08;40.55
3082;BME280;1551;51.046;7.010;2023-07-08T00:33:19;100967.41;;;24.06;40.66
3082;BME280;1551;51.046;7.010;2023-07-08T00:36:11;100960.38;;;23.92;41.45
3082;BME280;1551;51.046;7.010;2023-07-08T00:39:01;100955.72;;;23.83;41.94
3082;BME280;1551;51.046;7.010;2023-07-08T00:41:52;100957.66;;;23.80;42.05
3082;BME280;1551;51.046;7.010;2023-07-08T00:44:43;100963.16;;;23.75;42.35
3082;BME280;1551;51.046;7.010;2023-07-08T00:47:32;100962.97;;;23.64;42.65
3082;BME280;1551;51.046;7.010;2023-07-08T00:50:22;100943.75;;;23.51;43.00
3082;BME280;1551;51.046;7.010;2023-07-08T00:53:28;100958.28;;;23.41;43.76
3082;BME280;1551;51.046;7.010;2023-07-08T00:56:24;100958.56;;;23.37;43.92
3082;BME280;1551;51.046;7.010;2023-07-08T01:02:07;100961.94;;;23.23;44.72
3082;BME280;1551;51.046;7.010;2023-07-08T01:05:08;100961.63;;;23.13;45.20
3082;BME280;1551;51.046;7.010;2023-07-08T01:08:02;100957.22;;;23.00;45.72
3082;BME280;1551;51.046;7.010;2023-07-08T01:10:57;100950.56;;;22.94;46.51
3082;BME280;1551;51.046;7.010;2023-07-08T01:13:47;100933.97;;;22.80;46.68
3082;BME280;1551;51.046;7.010;2023-07-08T01:16:39;100945.53;;;22.76;47.76
3082;BME280;1551;51.046;7.010;2023-07-08T01:19:29;100955.97;;;22.76;47.63
3082;BME280;1551;51.046;7.010;2023-07-08T01:22:22;100942.69;;;22.65;48.32
3082;BME280;1551;51.046;7.010;2023-07-08T01:25:12;100954.97;;;22.63;49.21
3082;BME280;1551;51.046;7.010;2023-07-08T01:28:02;100950.16;;;22.55;50.19
3082;BME280;1551;51.046;7.010;2023-07-08T01:30:51;100939.13;;;22.50;51.55
3082;BME280;1551;51.046;7.010;2023-07-08T01:33:41;100942.84;;;22.46;52.72
3082;BME280;1551;51.046;7.010;2023-07-08T01:36:35;100950.97;;;22.40;53.87
3082;BME280;1551;51.046;7.010;2023-07-08T01:39:28;100946.63;;;22.40;53.91
3082;BME280;1551;51.046;7.010;2023-07-08T01:42:17;100945.84;;;22.38;54.54
3082;BME280;1551;51.046;7.010;2023-07-08T01:45:13;100945.16;;;22.35;54.91
3082;BME280;1551;51.046;7.010;2023-07-08T01:48:05;100942.50;;;22.36;54.98
3082;BME280;1551;51.046;7.010;2023-07-08T01:51:04;100924.06;;;22.24;55.06
3082;BME280;1551;51.046;7.010;2023-07-08T01:53:53;100938.28;;;22.34;55.54
3082;BME280;1551;51.046;7.010;2023-07-08T01:56:42;100948.78;;;22.32;55.44
3082;BME280;1551;51.046;7.010;2023-07-08T01:59:31;100941.31;;;22.26;55.59
3082;BME280;1551;51.046;7.010;2023-07-08T02:02:20;100940.56;;;22.24;55.59
3082;BME280;1551;51.046;7.010;2023-07-08T02:05:09;100942.41;;;22.22;54.81
3082;BME280;1551;51.046;7.010;2023-07-08T02:07:58;100940.13;;;22.16;54.11
3082;BME280;1551;51.046;7.010;2023-07-08T02:10:54;100934.06;;;22.16;53.21
3082;BME280;1551;51.046;7.010;2023-07-08T02:13:44;100926.41;;;22.13;52.73
3082;BME280;1551;51.046;7.010;2023-07-08T02:16:33;100920.75;;;22.05;52.54
3082;BME280;1551;51.046;7.010;2023-07-08T02:19:22;100919.25;;;22.01;52.83
3082;BME280;1551;51.046;7.010;2023-07-08T02:22:11;100913.44;;;21.96;53.47
3082;BME280;1551;51.046;7.010;2023-07-08T02:25:00;100923.00;;;21.95;53.84
3082;BME280;1551;51.046;7.010;2023-07-08T02:27:49;100914.34;;;21.95;54.27
3082;BME280;1551;51.046;7.010;2023-07-08T02:30:40;100909.56;;;21.87;54.82
3082;BME280;1551;51.046;7.010;2023-07-08T02:33:29;100914.03;;;21.83;55.23
3082;BME280;1551;51.046;7.010;2023-07-08T02:36:21;100907.97;;;21.83;55.08
3082;BME280;1551;51.046;7.010;2023-07-08T02:39:10;100901.34;;;21.77;55.14
3082;BME280;1551;51.046;7.010;2023-07-08T02:42:00;100908.66;;;21.71;55.10
3082;BME280;1551;51.046;7.010;2023-07-08T02:44:50;100895.03;;;21.66;55.27
3082;BME280;1551;51.046;7.010;2023-07-08T02:47:39;100897.88;;;21.61;55.12
3082;BME280;1551;51.046;7.010;2023-07-08T02:50:28;100902.28;;;21.59;54.49
3082;BME280;1551;51.046;7.010;2023-07-08T02:53:17;100902.78;;;21.50;54.09
3082;BME280;1551;51.046;7.010;2023-07-08T02:56:06;100910.81;;;21.46;54.40
3082;BME280;1551;51.046;7.010;2023-07-08T02:58:54;100894.47;;;21.27;54.36
3082;BME280;1551;51.046;7.010;2023-07-08T03:01:44;100916.84;;;21.31;54.37
3082;BME280;1551;51.046;7.010;2023-07-08T03:04:35;100913.75;;;21.22;54.63
3082;BME280;1551;51.046;7.010;2023-07-08T03:07:28;100915.75;;;21.17;55.44
3082;BME280;1551;51.046;7.010;2023-07-08T03:10:17;100903.81;;;21.13;56.71
3082;BME280;1551;51.046;7.010;2023-07-08T03:13:06;100911.78;;;21.10;57.03
3082;BME280;1551;51.046;7.010;2023-07-08T03:15:56;100908.50;;;21.07;57.46
3082;BME280;1551;51.046;7.010;2023-07-08T03:18:45;100911.34;;;21.01;57.43
3082;BME280;1551;51.046;7.010;2023-07-08T03:21:36;100913.06;;;21.02;57.57
3082;BME280;1551;51.046;7.010;2023-07-08T03:24:25;100922.00;;;20.96;57.84
3082;BME280;1551;51.046;7.010;2023-07-08T03:27:15;100911.75;;;20.93;57.96
3082;BME280;1551;51.046;7.010;2023-07-08T03:30:07;100917.00;;;20.92;57.47
3082;BME280;1551;51.046;7.010;2023-07-08T03:32:57;100918.00;;;20.89;57.40
3082;BME280;1551;51.046;7.010;2023-07-08T03:35:46;100925.81;;;20.89;57.68
3082;BME280;1551;51.046;7.010;2023-07-08T03:38:35;100927.50;;;20.90;58.12
3082;BME280;1551;51.046;7.010;2023-07-08T03:41:24;100921.59;;;20.87;57.87
3082;BME280;1551;51.046;7.010;2023-07-08T03:44:13;100933.94;;;20.83;58.20
3082;BME280;1551;51.046;7.010;2023-07-08T03:47:04;100930.09;;;20.90;58.39
3082;BME280;1551;51.046;7.010;2023-07-08T03:49:54;100935.94;;;20.95;57.94
3082;BME280;1551;51.046;7.010;2023-07-08T03:52:45;100929.34;;;20.88;58.90
3082;BME280;1551;51.046;7.010;2023-07-08T03:55:35;100934.38;;;20.91;59.57
3082;BME280;1551;51.046;7.010;2023-07-08T03:58:26;100937.69;;;20.95;60.75
3082;BME280;1551;51.046;7.010;2023-07-08T04:01:20;100937.69;;;20.95;61.68
3082;BME280;1551;51.046;7.010;2023-07-08T04:04:14;100937.69;;;20.95;61.88
3082;BME280;1551;51.046;7.010;2023-07-08T04:07:05;100924.91;;;20.90;62.00
3082;BME280;1551;51.046;7.010;2023-07-08T04:09:55;100938.38;;;20.98;61.61
3082;BME280;1551;51.046;7.010;2023-07-08T04:12:44;100945.00;;;20.87;61.53
3082;BME280;1551;51.046;7.010;2023-07-08T04:15:33;100940.25;;;20.78;61.29
3082;BME280;1551;51.046;7.010;2023-07-08T04:18:22;100939.41;;;20.77;60.53
3082;BME280;1551;51.046;7.010;2023-07-08T04:21:11;100943.56;;;20.81;60.00
3082;BME280;1551;51.046;7.010;2023-07-08T04:24:00;100942.13;;;20.93;59.83
3082;BME280;1551;51.046;7.010;2023-07-08T04:26:49;100947.88;;;20.99;59.01
3082;BME280;1551;51.046;7.010;2023-07-08T04:29:39;100942.44;;;21.04;58.43
3082;BME280;1551;51.046;7.010;2023-07-08T04:32:28;100943.00;;;21.10;58.30
3082;BME280;1551;51.046;7.010;2023-07-08T04:35:17;100935.16;;;21.12;58.56
3082;BME280;1551;51.046;7.010;2023-07-08T04:38:18;100947.22;;;21.13;59.61
3082;BME280;1551;51.046;7.010;2023-07-08T04:41:07;100944.72;;;21.11;59.71
3082;BME280;1551;51.046;7.010;2023-07-08T04:43:56;100938.78;;;21.08;60.10
3082;BME280;1551;51.046;7.010;2023-07-08T04:46:50;100942.38;;;21.05;60.92
3082;BME280;1551;51.046;7.010;2023-07-08T04:49:41;100947.97;;;20.98;61.54
3082;BME280;1551;51.046;7.010;2023-07-08T04:52:32;100945.03;;;21.04;61.38
3082;BME280;1551;51.046;7.010;2023-07-08T04:55:22;100944.41;;;20.99;61.02
3082;BME280;1551;51.046;7.010;2023-07-08T04:58:10;100950.19;;;21.05;60.71
3082;BME280;1551;51.046;7.010;2023-07-08T05:00:59;100954.34;;;21.09;60.11
3082;BME280;1551;51.046;7.010;2023-07-08T05:03:48;100950.75;;;21.12;60.03
3082;BME280;1551;51.046;7.010;2023-07-08T05:06:37;100951.16;;;21.21;59.59
3082;BME280;1551;51.046;7.010;2023-07-08T05:09:26;100952.22;;;21.35;59.56
3082;BME280;1551;51.046;7.010;2023-07-08T05:12:16;100959.19;;;21.51;58.93
3082;BME280;1551;51.046;7.010;2023-07-08T05:15:05;100955.47;;;21.72;57.52
3082;BME280;1551;51.046;7.010;2023-07-08T05:17:54;100953.53;;;21.93;56.41
3082;BME280;1551;51.046;7.010;2023-07-08T05:20:50;100960.13;;;22.16;56.08
3082;BME280;1551;51.046;7.010;2023-07-08T05:23:39;100961.00;;;22.32;55.36
3082;BME280;1551;51.046;7.010;2023-07-08T05:26:28;100957.44;;;22.48;54.56
3082;BME280;1551;51.046;7.010;2023-07-08T05:29:17;100955.53;;;22.68;54.06
3082;BME280;1551;51.046;7.010;2023-07-08T05:32:06;100953.19;;;22.79;53.66
3082;BME280;1551;51.046;7.010;2023-07-08T05:34:55;100955.28;;;22.88;53.17
3082;BME280;1551;51.046;7.010;2023-07-08T05:37:44;100952.81;;;23.00;52.53
3082;BME280;1551;51.046;7.010;2023-07-08T05:40:35;100952.78;;;23.16;52.34
3082;BME280;1551;51.046;7.010;2023-07-08T05:43:25;100948.94;;;23.21;52.39
3082;BME280;1551;51.046;7.010;2023-07-08T05:46:14;100949.19;;;23.33;52.23
3082;BME280;1551;51.046;7.010;2023-07-08T05:49:03;100954.53;;;23.45;51.76
3082;BME280;1551;51.046;7.010;2023-07-08T05:51:52;100958.31;;;23.69;50.99
3082;BME280;1551;51.046;7.010;2023-07-08T05:54:41;100964.69;;;23.93;50.32
3082;BME280;1551;51.046;7.010;2023-07-08T05:57:31;100960.50;;;24.19;49.95
3082;BME280;1551;51.046;7.010;2023-07-08T06:00:20;100955.72;;;24.26;48.73
3082;BME280;1551;51.046;7.010;2023-07-08T06:03:09;100951.47;;;24.51;47.95
3082;BME280;1551;51.046;7.010;2023-07-08T06:05:58;100961.50;;;24.72;46.35
3082;BME280;1551;51.046;7.010;2023-07-08T06:08:47;100960.06;;;24.94;46.17
3082;BME280;1551;51.046;7.010;2023-07-08T06:11:36;100962.69;;;25.07;45.52
3082;BME280;1551;51.046;7.010;2023-07-08T06:14:27;100964.16;;;24.98;44.79
3082;BME280;1551;51.046;7.010;2023-07-08T06:17:17;100963.28;;;24.98;45.23
3082;BME280;1551;51.046;7.010;2023-07-08T06:20:07;100959.22;;;25.06;44.09
3082;BME280;1551;51.046;7.010;2023-07-08T06:22:56;100954.84;;;25.07;44.51
3082;BME280;1551;51.046;7.010;2023-07-08T06:25:45;100954.66;;;25.22;43.95
3082;BME280;1551;51.046;7.010;2023-07-08T06:28:34;100959.38;;;25.30;43.76
3082;BME280;1551;51.046;7.010;2023-07-08T06:31:23;100951.22;;;25.35;44.06
3082;BME280;1551;51.046;7.010;2023-07-08T06:34:12;100963.31;;;25.50;43.70
3082;BME280;1551;51.046;7.010;2023-07-08T06:37:01;100956.28;;;25.63;44.19
3082;BME280;1551;51.046;7.010;2023-07-08T06:39:50;100939.09;;;25.59;43.64
3082;BME280;1551;51.046;7.010;2023-07-08T06:42:39;100966.78;;;25.75;43.53
3082;BME280;1551;51.046;7.010;2023-07-08T06:45:52;100979.91;;;25.88;42.87
3082;BME280;1551;51.046;7.010;2023-07-08T06:48:41;100975.28;;;26.04;41.58
3082;BME280;1551;51.046;7.010;2023-07-08T06:51:30;100970.56;;;26.22;41.37
3082;BME280;1551;51.046;7.010;2023-07-08T06:54:19;100968.63;;;26.36;40.34
3082;BME280;1551;51.046;7.010;2023-07-08T06:57:08;100954.50;;;26.50;40.16
3082;BME280;1551;51.046;7.010;2023-07-08T06:59:57;100956.16;;;26.87;39.75
3082;BME280;1551;51.046;7.010;2023-07-08T07:02:47;100965.06;;;27.32;39.13
3082;BME280;1551;51.046;7.010;2023-07-08T07:05:35;100967.91;;;27.64;38.82
3082;BME280;1551;51.046;7.010;2023-07-08T07:08:24;100966.72;;;27.68;38.38
3082;BME280;1551;51.046;7.010;2023-07-08T07:11:13;100972.13;;;28.00;38.00
3082;BME280;1551;51.046;7.010;2023-07-08T07:14:02;100978.34;;;28.21;37.71
3082;BME280;1551;51.046;7.010;2023-07-08T07:16:52;100976.16;;;28.48;37.29
3082;BME280;1551;51.046;7.010;2023-07-08T07:19:41;100975.47;;;28.46;36.77
3082;BME280;1551;51.046;7.010;2023-07-08T07:22:30;100977.75;;;28.28;37.04
3082;BME280;1551;51.046;7.010;2023-07-08T07:25:19;100968.75;;;28.53;36.82
3082;BME280;1551;51.046;7.010;2023-07-08T07:28:08;100976.13;;;28.81;36.32
3082;BME280;1551;51.046;7.010;2023-07-08T07:30:59;100981.81;;;28.97;36.18
3082;BME280;1551;51.046;7.010;2023-07-08T07:33:48;100978.06;;;29.32;35.30
3082;BME280;1551;51.046;7.010;2023-07-08T07:36:37;100978.97;;;29.42;35.53
3082;BME280;1551;51.046;7.010;2023-07-08T07:39:26;100980.53;;;29.95;34.17
3082;BME280;1551;51.046;7.010;2023-07-08T07:42:18;100989.06;;;29.99;34.05
3082;BME280;1551;51.046;7.010;2023-07-08T07:45:08;100983.75;;;30.29;31.89
3082;BME280;1551;51.046;7.010;2023-07-08T07:47:58;100987.72;;;30.63;31.23
3082;BME280;1551;51.046;7.010;2023-07-08T07:50:48;100980.00;;;30.90;31.33
3082;BME280;1551;51.046;7.010;2023-07-08T07:53:38;100989.59;;;30.91;30.90
3082;BME280;1551;51.046;7.010;2023-07-08T07:56:27;100988.06;;;30.98;30.61
3082;BME280;1551;51.046;7.010;2023-07-08T07:59:16;100999.63;;;31.26;30.96
3082;BME280;1551;51.046;7.010;2023-07-08T08:02:05;100999.47;;;31.37;30.83
3082;BME280;1551;51.046;7.010;2023-07-08T08:04:54;100997.81;;;31.17;30.69
3082;BME280;1551;51.046;7.010;2023-07-08T08:07:43;101002.66;;;30.74;30.28
3082;BME280;1551;51.046;7.010;2023-07-08T08:10:32;100997.34;;;30.24;30.32
3082;BME280;1551;51.046;7.010;2023-07-08T08:13:22;101000.53;;;30.28;30.64
3082;BME280;1551;51.046;7.010;2023-07-08T08:16:11;101003.50;;;30.34;30.27
3082;BME280;1551;51.046;7.010;2023-07-08T08:19:00;100998.84;;;30.17;31.00
3082;BME280;1551;51.046;7.010;2023-07-08T08:21:49;100976.59;;;30.10;31.31
3082;BME280;1551;51.046;7.010;2023-07-08T08:24:37;100993.13;;;30.42;31.08
3082;BME280;1551;51.046;7.010;2023-07-08T08:27:27;100999.94;;;30.45;31.14
3082;BME280;1551;51.046;7.010;2023-07-08T08:30:16;100996.50;;;30.64;30.79
3082;BME280;1551;51.046;7.010;2023-07-08T08:33:05;100992.94;;;30.93;30.73
3082;BME280;1551;51.046;7.010;2023-07-08T08:35:54;100996.44;;;30.94;31.01
3082;BME280;1551;51.046;7.010;2023-07-08T08:38:43;101001.41;;;31.54;30.13
3082;BME280;1551;51.046;7.010;2023-07-08T08:41:34;100997.88;;;31.82;29.66
3082;BME280;1551;51.046;7.010;2023-07-08T08:44:29;101001.97;;;32.14;29.09
3082;BME280;1551;51.046;7.010;2023-07-08T08:47:40;100997.59;;;32.22;28.83
3082;BME280;1551;51.046;7.010;2023-07-08T08:50:35;100994.16;;;32.39;28.97
3082;BME280;1551;51.046;7.010;2023-07-08T08:53:27;100997.53;;;32.59;28.57
3082;BME280;1551;51.046;7.010;2023-07-08T08:56:28;100992.09;;;32.78;28.11
3082;BME280;1551;51.046;7.010;2023-07-08T09:02:40;100995.38;;;32.90;27.87
3082;BME280;1551;51.046;7.010;2023-07-08T09:05:31;100997.34;;;32.88;27.78
3082;BME280;1551;51.046;7.010;2023-07-08T09:08:25;101010.88;;;33.12;27.56
3082;BME280;1551;51.046;7.010;2023-07-08T09:11:23;100999.19;;;33.05;27.63
3082;BME280;1551;51.046;7.010;2023-07-08T09:14:18;101001.91;;;33.31;27.22
3082;BME280;1551;51.046;7.010;2023-07-08T09:17:31;101009.31;;;33.45;27.26
3082;BME280;1551;51.046;7.010;2023-07-08T09:20:22;101006.50;;;33.64;27.45
3082;BME280;1551;51.046;7.010;2023-07-08T09:23:29;100997.56;;;33.73;27.12
3082;BME280;1551;51.046;7.010;2023-07-08T09:26:22;101001.53;;;33.69;27.00
3082;BME280;1551;51.046;7.010;2023-07-08T09:29:13;100991.94;;;34.02;27.36
3082;BME280;1551;51.046;7.010;2023-07-08T09:32:19;101006.78;;;34.12;27.31
3082;BME280;1551;51.046;7.010;2023-07-08T09:35:23;101001.72;;;34.01;27.09
3082;BME280;1551;51.046;7.010;2023-07-08T09:38:17;100996.00;;;34.14;27.22
3082;BME280;1551;51.046;7.010;2023-07-08T09:41:06;100995.44;;;34.44;26.39
3082;BME280;1551;51.046;7.010;2023-07-08T09:44:04;100995.00;;;34.73;26.27
3082;BME280;1551;51.046;7.010;2023-07-08T09:46:54;100994.34;;;34.63;26.58
3082;BME280;1551;51.046;7.010;2023-07-08T09:49:44;100998.03;;;34.70;26.74
3082;BME280;1551;51.046;7.010;2023-07-08T09:52:33;100987.34;;;34.62;27.01
3082;BME280;1551;51.046;7.010;2023-07-08T09:55:21;100984.59;;;35.03;26.52
3082;BME280;1551;51.046;7.010;2023-07-08T09:58:30;100983.63;;;35.20;25.55
3082;BME280;1551;51.046;7.010;2023-07-08T10:01:23;100989.75;;;35.53;26.19
3082;BME280;1551;51.046;7.010;2023-07-08T10:04:13;100990.22;;;35.73;26.02
3082;BME280;1551;51.046;7.010;2023-07-08T10:07:05;100993.50;;;35.91;25.30
3082;BME280;1551;51.046;7.010;2023-07-08T10:10:06;100986.53;;;35.82;25.24
3082;BME280;1551;51.046;7.010;2023-07-08T10:12:59;100988.09;;;36.15;25.40
3082;BME280;1551;51.046;7.010;2023-07-08T10:15:55;100980.84;;;36.32;25.44
3082;BME280;1551;51.046;7.010;2023-07-08T10:18:45;100969.19;;;35.94;24.82
3082;BME280;1551;51.046;7.010;2023-07-08T10:25:06;100975.06;;;36.59;24.65
3082;BME280;1551;51.046;7.010;2023-07-08T10:31:46;100974.78;;;37.37;23.98
3082;BME280;1551;51.046;7.010;2023-07-08T10:34:52;100962.84;;;37.47;23.42
3082;BME280;1551;51.046;7.010;2023-07-08T10:41:01;100964.31;;;37.64;23.05
3082;BME280;1551;51.046;7.010;2023-07-08T10:44:02;100954.66;;;38.07;23.84
3082;BME280;1551;51.046;7.010;2023-07-08T10:56:46;100958.44;;;38.48;22.67
3082;BME280;1551;51.046;7.010;2023-07-08T10:59:56;100967.31;;;38.70;22.54
3082;BME280;1551;51.046;7.010;2023-07-08T11:06:01;100952.78;;;38.58;22.40
3082;BME280;1551;51.046;7.010;2023-07-08T11:08:57;100951.94;;;38.58;22.33
3082;BME280;1551;51.046;7.010;2023-07-08T11:12:07;100944.53;;;38.38;22.40
3082;BME280;1551;51.046;7.010;2023-07-08T11:15:15;100948.25;;;38.23;22.32
3082;BME280;1551;51.046;7.010;2023-07-08T11:18:19;100945.81;;;37.92;22.54
3082;BME280;1551;51.046;7.010;2023-07-08T11:21:15;100943.91;;;37.86;23.12
3082;BME280;1551;51.046;7.010;2023-07-08T11:24:47;100938.75;;;38.20;22.75
3082;BME280;1551;51.046;7.010;2023-07-08T11:27:39;100943.78;;;37.94;22.62
3082;BME280;1551;51.046;7.010;2023-07-08T11:30:30;100939.13;;;38.17;22.38
3082;BME280;1551;51.046;7.010;2023-07-08T11:33:24;100937.41;;;38.45;22.03
3082;BME280;1551;51.046;7.010;2023-07-08T11:36:14;100929.16;;;38.62;21.89
3082;BME280;1551;51.046;7.010;2023-07-08T11:39:28;100929.00;;;38.91;22.09
3082;BME280;1551;51.046;7.010;2023-07-08T11:42:22;100941.22;;;39.21;21.05
3082;BME280;1551;51.046;7.010;2023-07-08T11:45:26;100934.44;;;38.76;20.54
3082;BME280;1551;51.046;7.010;2023-07-08T11:48:26;100934.94;;;38.86;21.19
3082;BME280;1551;51.046;7.010;2023-07-08T11:51:28;100929.22;;;38.89;20.61
3082;BME280;1551;51.046;7.010;2023-07-08T11:54:29;100936.25;;;39.18;20.23
3082;BME280;1551;51.046;7.010;2023-07-08T11:57:28;100929.06;;;39.25;19.95
3082;BME280;1551;51.046;7.010;2023-07-08T12:00:24;100932.47;;;39.34;20.41
3082;BME280;1551;51.046;7.010;2023-07-08T12:03:20;100937.59;;;39.35;20.29
3082;BME280;1551;51.046;7.010;2023-07-08T12:09:29;100926.84;;;39.01;20.47
3082;BME280;1551;51.046;7.010;2023-07-08T12:12:27;100914.22;;;38.74;20.16
3082;BME280;1551;51.046;7.010;2023-07-08T12:15:24;100929.84;;;38.49;20.77
3082;BME280;1551;51.046;7.010;2023-07-08T12:18:16;100924.47;;;38.49;21.17
3082;BME280;1551;51.046;7.010;2023-07-08T12:21:07;100929.75;;;39.27;20.79
3082;BME280;1551;51.046;7.010;2023-07-08T12:24:03;100926.16;;;39.48;20.59
3082;BME280;1551;51.046;7.010;2023-07-08T12:26:52;100922.88;;;39.52;20.34
3082;BME280;1551;51.046;7.010;2023-07-08T12:29:41;100919.28;;;39.73;20.26
3082;BME280;1551;51.046;7.010;2023-07-08T12:32:31;100920.81;;;39.54;21.51
3082;BME280;1551;51.046;7.010;2023-07-08T12:35:29;100921.00;;;39.87;20.17
3082;BME280;1551;51.046;7.010;2023-07-08T12:41:18;100918.06;;;39.75;19.45
3082;BME280;1551;51.046;7.010;2023-07-08T12:44:17;100915.97;;;39.64;19.48
3082;BME280;1551;51.046;7.010;2023-07-08T12:47:07;100899.22;;;39.00;19.58
3082;BME280;1551;51.046;7.010;2023-07-08T12:49:57;100909.59;;;38.82;20.41
3082;BME280;1551;51.046;7.010;2023-07-08T12:52:46;100907.97;;;38.88;20.33
3082;BME280;1551;51.046;7.010;2023-07-08T12:55:41;100915.84;;;39.17;19.85
3082;BME280;1551;51.046;7.010;2023-07-08T12:58:34;100904.44;;;39.77;20.27
3082;BME280;1551;51.046;7.010;2023-07-08T13:01:28;100907.72;;;40.13;20.20
3082;BME280;1551;51.046;7.010;2023-07-08T13:04:18;100910.41;;;39.66;20.20
3082;BME280;1551;51.046;7.010;2023-07-08T13:07:28;100910.19;;;39.67;19.99
3082;BME280;1551;51.046;7.010;2023-07-08T13:10:21;100904.09;;;39.87;20.45
3082;BME280;1551;51.046;7.010;2023-07-08T13:13:17;100896.75;;;40.02;20.10
3082;BME280;1551;51.046;7.010;2023-07-08T13:16:08;100909.44;;;39.87;20.38
3082;BME280;1551;51.046;7.010;2023-07-08T13:18:59;100889.28;;;39.91;20.59
3082;BME280;1551;51.046;7.010;2023-07-08T13:21:49;100903.81;;;40.29;20.72
3082;BME280;1551;51.046;7.010;2023-07-08T13:24:39;100899.84;;;40.12;20.06
3082;BME280;1551;51.046;7.010;2023-07-08T13:27:29;100905.06;;;39.72;20.03
3082;BME280;1551;51.046;7.010;2023-07-08T13:30:20;100908.53;;;39.66;20.50
3082;BME280;1551;51.046;7.010;2023-07-08T13:33:17;100907.25;;;39.00;21.38
3082;BME280;1551;51.046;7.010;2023-07-08T13:36:06;100900.00;;;39.15;20.64
3082;BME280;1551;51.046;7.010;2023-07-08T13:38:56;100904.72;;;38.71;21.08
3082;BME280;1551;51.046;7.010;2023-07-08T13:41:45;100895.38;;;38.82;21.57
3082;BME280;1551;51.046;7.010;2023-07-08T13:44:34;100892.56;;;39.52;21.29
3082;BME280;1551;51.046;7.010;2023-07-08T13:47:30;100900.91;;;39.70;21.31
3082;BME280;1551;51.046;7.010;2023-07-08T13:50:25;100894.50;;;39.30;21.05
3082;BME280;1551;51.046;7.010;2023-07-08T13:53:42;100892.50;;;39.39;20.89
3082;BME280;1551;51.046;7.010;2023-07-08T13:56:34;100899.66;;;39.59;21.00
3082;BME280;1551;51.046;7.010;2023-07-08T13:59:25;100906.84;;;39.25;21.23
3082;BME280;1551;51.046;7.010;2023-07-08T14:02:21;100905.09;;;39.45;21.24
3082;BME280;1551;51.046;7.010;2023-07-08T14:05:12;100893.69;;;39.30;20.25
3082;BME280;1551;51.046;7.010;2023-07-08T14:08:02;100886.34;;;39.45;20.58
3082;BME280;1551;51.046;7.010;2023-07-08T14:10:51;100879.69;;;38.79;20.87
3082;BME280;1551;51.046;7.010;2023-07-08T14:13:40;100877.69;;;39.49;20.93
3082;BME280;1551;51.046;7.010;2023-07-08T14:16:32;100888.94;;;39.59;20.44
3082;BME280;1551;51.046;7.010;2023-07-08T14:19:28;100883.56;;;39.59;21.15
3082;BME280;1551;51.046;7.010;2023-07-08T14:22:26;100873.94;;;39.44;20.83
3082;BME280;1551;51.046;7.010;2023-07-08T14:25:16;100872.47;;;38.79;21.21
3082;BME280;1551;51.046;7.010;2023-07-08T14:28:07;100873.59;;;38.42;21.89
3082;BME280;1551;51.046;7.010;2023-07-08T14:30:56;100882.41;;;37.57;22.06
3082;BME280;1551;51.046;7.010;2023-07-08T14:33:44;100872.78;;;37.33;22.76
3082;BME280;1551;51.046;7.010;2023-07-08T14:36:34;100877.50;;;37.31;22.97
3082;BME280;1551;51.046;7.010;2023-07-08T14:39:23;100886.38;;;37.46;22.79
3082;BME280;1551;51.046;7.010;2023-07-08T14:42:13;100880.41;;;37.44;23.12
3082;BME280;1551;51.046;7.010;2023-07-08T14:45:04;100879.19;;;37.47;22.45
3082;BME280;1551;51.046;7.010;2023-07-08T14:47:53;100881.13;;;37.53;22.45
3082;BME280;1551;51.046;7.010;2023-07-08T14:50:43;100885.44;;;37.54;22.44
3082;BME280;1551;51.046;7.010;2023-07-08T14:53:32;100879.81;;;37.63;22.99
3082;BME280;1551;51.046;7.010;2023-07-08T14:56:21;100888.50;;;37.65;22.98
3082;BME280;1551;51.046;7.010;2023-07-08T14:59:17;100889.22;;;37.74;22.99
3082;BME280;1551;51.046;7.010;2023-07-08T15:02:20;100891.78;;;37.97;22.99
3082;BME280;1551;51.046;7.010;2023-07-08T15:05:19;100881.84;;;37.76;22.62
3082;BME280;1551;51.046;7.010;2023-07-08T15:08:08;100892.88;;;37.73;22.96
3082;BME280;1551;51.046;7.010;2023-07-08T15:10:57;100883.44;;;37.56;23.10
3082;BME280;1551;51.046;7.010;2023-07-08T15:13:47;100890.16;;;37.37;24.14
3082;BME280;1551;51.046;7.010;2023-07-08T15:16:36;100892.06;;;37.29;23.87
3082;BME280;1551;51.046;7.010;2023-07-08T15:19:25;100897.88;;;37.32;23.98
3082;BME280;1551;51.046;7.010;2023-07-08T15:22:14;100890.16;;;37.37;23.75
3082;BME280;1551;51.046;7.010;2023-07-08T15:25:03;100888.94;;;37.25;23.97
3082;BME280;1551;51.046;7.010;2023-07-08T15:27:54;100895.00;;;37.34;23.60
3082;BME280;1551;51.046;7.010;2023-07-08T15:30:44;100888.47;;;37.36;24.07
3082;BME280;1551;51.046;7.010;2023-07-08T15:33:34;100887.38;;;37.45;24.43
3082;BME280;1551;51.046;7.010;2023-07-08T15:36:23;100892.34;;;37.34;23.94
3082;BME280;1551;51.046;7.010;2023-07-08T15:39:12;100887.38;;;37.45;24.29
3082;BME280;1551;51.046;7.010;2023-07-08T15:42:07;100887.03;;;37.63;24.22
3082;BME280;1551;51.046;7.010;2023-07-08T15:44:57;100889.84;;;37.61;24.15
3082;BME280;1551;51.046;7.010;2023-07-08T15:47:46;100889.78;;;37.55;23.89
3082;BME280;1551;51.046;7.010;2023-07-08T15:50:35;100884.06;;;37.43;23.72
3082;BME280;1551;51.046;7.010;2023-07-08T15:53:24;100878.94;;;37.42;24.40
3082;BME280;1551;51.046;7.010;2023-07-08T15:56:15;100880.56;;;37.43;23.95
3082;BME280;1551;51.046;7.010;2023-07-08T15:59:11;100887.53;;;37.14;23.84